createdAt,value
2024-01-04T00:02:16.039Z,40.40
2024-01-04T00:07:20.316Z,40.50
2024-01-04T00:12:23.218Z,40.50
2024-01-04T00:17:26.175Z,40.50
2024-01-04T00:22:30.424Z,40.60
2024-01-04T00:27:33.326Z,40.50
2024-01-04T00:32:36.570Z,40.60
2024-01-04T00:37:40.869Z,40.60
2024-01-04T00:42:44.108Z,40.60
2024-01-04T00:47:47.129Z,40.60
2024-01-04T00:53:00.361Z,40.60
2024-01-04T00:58:09.104Z,40.60
2024-01-04T01:03:12.223Z,40.60
2024-01-04T01:08:16.976Z,40.60
2024-01-04T01:13:23.307Z,40.60
2024-01-04T01:18:26.314Z,40.70
2024-01-04T01:23:30.600Z,40.70
2024-01-04T01:28:33.652Z,40.70
2024-01-04T01:33:36.662Z,40.70
2024-01-04T01:38:41.022Z,40.60
2024-01-04T01:43:44.004Z,40.70
2024-01-04T01:48:48.399Z,40.70
2024-01-04T01:53:52.877Z,40.60
2024-01-04T01:58:55.774Z,40.70
2024-01-04T02:03:58.731Z,40.70
2024-01-04T02:09:03.243Z,40.60
2024-01-04T02:14:06.100Z,40.60
2024-01-04T02:19:10.622Z,40.60
2024-01-04T02:24:14.952Z,40.60
2024-01-04T02:29:17.839Z,40.60
2024-01-04T02:34:20.863Z,40.40
2024-01-04T02:39:25.129Z,40.50
2024-01-04T02:44:27.961Z,40.50
2024-01-04T02:49:31.536Z,40.60
2024-01-04T02:54:35.800Z,40.60
2024-01-04T02:59:38.767Z,40.60
2024-01-04T03:04:43.481Z,40.50
2024-01-04T03:09:49.814Z,40.50
2024-01-04T03:14:52.695Z,40.50
2024-01-04T03:19:55.693Z,40.30
2024-01-04T03:25:00.008Z,40.20
2024-01-04T03:30:02.967Z,40.20
2024-01-04T03:35:06.706Z,40.20
2024-01-04T03:40:12.118Z,40.20
2024-01-04T03:45:15.105Z,40.20
2024-01-04T03:50:18.127Z,40.20
2024-01-04T03:55:22.381Z,40.20
2024-01-04T04:00:25.304Z,40.10
2024-01-04T04:05:28.130Z,40.30
2024-01-04T04:10:32.305Z,40.40
2024-01-04T04:15:35.409Z,40.20
2024-01-04T04:20:38.308Z,40.40
2024-01-04T04:25:42.647Z,40.40
2024-01-04T04:30:45.693Z,40.30
2024-01-04T04:35:55.742Z,40.10
2024-01-04T04:41:06.657Z,40.10
2024-01-04T04:46:11.607Z,40.20
2024-01-04T04:51:14.663Z,40.20
2024-01-04T04:56:18.918Z,40.30
2024-01-04T05:01:22.091Z,40.30
2024-01-04T05:06:25.040Z,40.40
2024-01-04T05:11:29.290Z,40.30
2024-01-04T05:16:32.489Z,40.90
2024-01-04T05:21:35.344Z,40.20
2024-01-04T05:26:39.541Z,40.30
2024-01-04T05:31:42.386Z,40.10
2024-01-04T05:36:45.205Z,39.80
2024-01-04T05:41:49.363Z,39.70
2024-01-04T05:46:52.283Z,39.70
2024-01-04T05:51:55.111Z,39.80
2024-01-04T05:56:59.462Z,39.80
2024-01-04T06:02:02.450Z,39.90
2024-01-04T06:07:05.506Z,39.90
2024-01-04T06:12:09.871Z,40.00
2024-01-04T06:17:12.751Z,40.00
2024-01-04T06:22:15.811Z,40.00
2024-01-04T06:27:20.173Z,40.10
2024-01-04T06:32:23.068Z,40.10
2024-01-04T06:37:25.897Z,40.20
2024-01-04T06:42:30.067Z,40.20
2024-01-04T06:47:33.119Z,40.20
2024-01-04T06:52:36.029Z,40.00
2024-01-04T06:57:40.191Z,39.80
2024-01-04T07:02:43.121Z,39.80
2024-01-04T07:07:45.977Z,39.90
2024-01-04T07:12:50.347Z,40.00
2024-01-04T07:17:53.913Z,40.00
2024-01-04T07:22:56.885Z,40.00
2024-01-04T07:28:01.070Z,40.00
2024-01-04T07:33:05.177Z,40.00
2024-01-04T07:38:08.468Z,39.90
2024-01-04T07:43:12.950Z,39.80
2024-01-04T07:48:16.312Z,39.80
2024-01-04T07:53:19.207Z,39.80
2024-01-04T07:58:23.381Z,39.80
2024-01-04T08:03:26.305Z,39.80
2024-01-04T08:08:29.661Z,39.80
2024-01-04T08:13:33.922Z,39.70
2024-01-04T08:18:37.532Z,39.60
2024-01-04T08:23:42.676Z,39.60
2024-01-04T08:28:46.923Z,39.60
2024-01-04T08:33:49.851Z,39.50
2024-01-04T08:38:52.832Z,39.50
2024-01-04T08:43:57.509Z,39.40
2024-01-04T08:49:01.770Z,39.40
2024-01-04T08:54:06.091Z,39.40
2024-01-04T08:59:10.360Z,39.30
2024-01-04T09:04:13.809Z,39.30
2024-01-04T09:09:16.789Z,39.30
2024-01-04T09:14:21.012Z,39.20
2024-01-04T09:19:25.903Z,39.10
2024-01-04T09:24:30.321Z,39.00
2024-01-04T09:29:34.583Z,39.00
2024-01-04T09:34:37.656Z,38.90
2024-01-04T09:39:41.857Z,38.90
2024-01-04T09:44:49.573Z,38.80
2024-01-04T09:49:53.613Z,38.80
2024-01-04T09:54:59.530Z,38.70
2024-01-04T10:00:05.124Z,38.80
2024-01-04T10:05:11.284Z,38.70
2024-01-04T10:10:20.175Z,38.70
2024-01-04T10:15:24.484Z,38.60
2024-01-04T10:20:27.451Z,38.60
2024-01-04T10:25:30.311Z,38.60
2024-01-04T10:30:34.656Z,38.60
2024-01-04T10:35:38.778Z,38.60
2024-01-04T10:40:41.653Z,38.70
2024-01-04T10:45:45.911Z,38.60
2024-01-04T10:50:48.834Z,38.70
2024-01-04T10:55:54.552Z,38.70
2024-01-04T11:00:59.261Z,38.80
2024-01-04T11:06:03.649Z,38.90
2024-01-04T11:11:08.288Z,38.90
2024-01-04T11:16:24.062Z,39.00
2024-01-04T11:21:43.198Z,39.10
2024-01-04T11:26:54.868Z,39.10
2024-01-04T11:32:01.145Z,39.10
2024-01-04T11:37:11.707Z,39.00
2024-01-04T11:42:15.450Z,39.10
2024-01-04T11:47:26.432Z,39.00
2024-01-04T11:52:30.075Z,39.00
2024-01-04T11:57:33.170Z,39.00
2024-01-04T12:02:37.463Z,39.00
2024-01-04T12:07:40.506Z,39.00
2024-01-04T12:12:43.337Z,39.00
2024-01-04T12:17:47.746Z,39.00
2024-01-04T12:22:51.397Z,39.00
2024-01-04T12:27:54.443Z,39.10
2024-01-04T12:33:03.232Z,39.20
2024-01-04T12:38:10.064Z,39.30
2024-01-04T12:43:15.406Z,39.30
2024-01-04T12:48:28.259Z,39.20
2024-01-04T12:53:33.734Z,39.10
2024-01-04T12:58:36.727Z,39.10
2024-01-04T13:03:41.411Z,39.10
2024-01-04T13:08:45.709Z,39.10
2024-01-04T13:13:51.782Z,39.10
2024-01-04T13:18:56.820Z,39.10
2024-01-04T13:24:00.310Z,39.20
2024-01-04T13:29:03.525Z,39.20
2024-01-04T13:34:08.801Z,39.20
2024-01-04T13:39:12.798Z,39.10
2024-01-04T13:44:16.174Z,39.10
2024-01-04T13:49:20.830Z,39.20
2024-01-04T13:54:26.586Z,39.30
2024-01-04T13:59:31.251Z,39.30
2024-01-04T14:04:35.502Z,39.30
2024-01-04T14:09:38.338Z,39.20
2024-01-04T14:14:41.271Z,39.10
2024-01-04T14:19:45.537Z,39.10
2024-01-04T14:24:48.421Z,39.20
2024-01-04T14:29:53.972Z,39.20
2024-01-04T14:34:58.581Z,39.10
2024-01-04T14:40:01.580Z,39.10
2024-01-04T14:45:04.822Z,39.10
2024-01-04T14:50:11.836Z,39.10
2024-01-04T14:55:14.911Z,39.20
2024-01-04T15:00:18.073Z,39.20
2024-01-04T15:05:22.451Z,39.30
2024-01-04T15:10:25.824Z,39.30
2024-01-04T15:15:37.335Z,39.30
2024-01-04T15:20:42.641Z,39.50
2024-01-04T15:25:46.134Z,39.50
2024-01-04T15:30:49.335Z,39.40
2024-01-04T15:35:53.664Z,39.20
2024-01-04T15:40:57.113Z,39.10
2024-01-04T15:45:59.973Z,39.10
2024-01-04T15:51:04.382Z,39.60
2024-01-04T15:56:07.848Z,39.00
2024-01-04T16:01:12.247Z,39.00
2024-01-04T16:06:16.658Z,38.90
2024-01-04T16:11:19.692Z,38.90
2024-01-04T16:16:22.817Z,38.90
2024-01-04T16:21:27.305Z,38.90
2024-01-04T16:26:30.149Z,39.00
2024-01-04T16:31:33.021Z,39.10
2024-01-04T16:36:37.278Z,39.00
2024-01-04T16:41:40.137Z,38.90
2024-01-04T16:46:42.989Z,38.90
2024-01-04T16:51:48.347Z,38.80
2024-01-04T16:56:51.494Z,38.80
2024-01-04T17:01:54.341Z,38.80
2024-01-04T17:06:58.506Z,38.80
2024-01-04T17:12:05.739Z,38.80
2024-01-04T17:17:08.643Z,38.90
2024-01-04T17:22:12.831Z,38.90
2024-01-04T17:27:16.179Z,39.00
2024-01-04T17:32:19.188Z,38.90
2024-01-04T17:37:23.500Z,39.00
2024-01-04T17:42:26.547Z,39.00
2024-01-04T17:47:30.136Z,39.10
2024-01-04T17:52:34.551Z,39.00
2024-01-04T17:57:37.443Z,38.80
2024-01-04T18:02:40.306Z,38.70
2024-01-04T18:07:44.527Z,38.60
2024-01-04T18:12:47.825Z,38.60
2024-01-04T18:17:50.842Z,38.50
2024-01-04T18:22:55.831Z,38.50
2024-01-04T18:27:58.934Z,38.50
2024-01-04T18:33:02.133Z,38.50
2024-01-04T18:38:06.589Z,38.50
2024-01-04T18:43:09.434Z,38.50
2024-01-04T18:48:13.873Z,38.50
2024-01-04T18:53:18.204Z,38.60
2024-01-04T18:58:21.226Z,38.70
2024-01-04T19:03:24.378Z,38.60
2024-01-04T19:08:28.608Z,38.40
2024-01-04T19:13:31.563Z,38.20
2024-01-04T19:18:35.347Z,38.10
2024-01-04T19:23:39.678Z,38.10
2024-01-04T19:28:42.536Z,38.10
2024-01-04T19:33:45.509Z,38.00
2024-01-04T19:38:49.829Z,38.20
2024-01-04T19:43:52.734Z,38.20
2024-01-04T19:48:55.887Z,38.40
2024-01-04T19:54:00.303Z,38.50
2024-01-04T19:59:03.560Z,38.50
2024-01-04T20:04:10.305Z,38.70
2024-01-04T20:09:14.881Z,38.50
2024-01-04T20:14:18.028Z,38.50
2024-01-04T20:19:21.355Z,38.20
2024-01-04T20:24:27.550Z,38.00
2024-01-04T20:29:30.455Z,37.90
2024-01-04T20:34:33.826Z,37.80
2024-01-04T20:39:40.023Z,37.70
2024-01-04T20:44:43.193Z,37.50
2024-01-04T20:49:50.406Z,37.20
2024-01-04T20:54:56.335Z,37.10
2024-01-04T20:59:59.235Z,36.90
2024-01-04T21:05:02.227Z,36.80
2024-01-04T21:10:09.072Z,36.70
2024-01-04T21:15:12.853Z,36.50
2024-01-04T21:20:15.846Z,36.20
2024-01-04T21:25:20.207Z,36.50
2024-01-04T21:30:23.471Z,36.40
2024-01-04T21:35:28.738Z,36.30
2024-01-04T21:40:33.005Z,36.20
2024-01-04T21:45:37.664Z,36.10
2024-01-04T21:50:40.923Z,36.00
2024-01-04T21:55:46.421Z,36.00
2024-01-04T22:00:49.356Z,36.00
2024-01-04T22:05:52.307Z,36.00
2024-01-04T22:10:56.557Z,35.60
2024-01-04T22:15:59.387Z,35.90
2024-01-04T22:21:02.560Z,36.20
2024-01-04T22:26:06.842Z,36.10
2024-01-04T22:31:09.762Z,36.10
2024-01-04T22:36:12.745Z,36.20
2024-01-04T22:41:18.050Z,36.20
2024-01-04T22:46:20.999Z,35.90
2024-01-04T22:51:23.852Z,36.00
2024-01-04T22:56:28.121Z,36.30
2024-01-04T23:01:31.054Z,36.10
2024-01-04T23:06:34.027Z,35.90
2024-01-04T23:11:38.755Z,36.20
2024-01-04T23:16:41.897Z,36.30
2024-01-04T23:21:45.007Z,36.40
2024-01-04T23:26:49.560Z,36.70
2024-01-04T23:31:52.410Z,36.60
2024-01-04T23:36:55.647Z,36.70
2024-01-04T23:41:59.860Z,36.80
2024-01-04T23:47:03.694Z,36.80
2024-01-04T23:52:06.969Z,36.80
2024-01-04T23:57:11.526Z,36.80
